createdAt,value
2018-04-12T00:01:22.602Z,69.90
2018-04-12T00:03:50.222Z,69.90
2018-04-12T00:06:18.622Z,70.30
2018-04-12T00:08:50.525Z,69.80
2018-04-12T00:11:20.887Z,69.80
2018-04-12T00:13:48.611Z,69.90
2018-04-12T00:16:16.193Z,69.90
2018-04-12T00:18:43.813Z,70.00
2018-04-12T00:21:11.439Z,70.00
2018-04-12T00:23:39.797Z,70.10
2018-04-12T00:26:07.405Z,70.10
2018-04-12T00:28:35.031Z,70.30
2018-04-12T00:31:03.422Z,70.30
2018-04-12T00:33:31.777Z,70.30
2018-04-12T00:35:59.397Z,70.40
2018-04-12T00:38:27.012Z,70.40
2018-04-12T00:40:55.452Z,70.50
2018-04-12T00:43:23.047Z,70.50
2018-04-12T00:45:51.401Z,70.70
2018-04-12T00:48:19.023Z,70.70
2018-04-12T00:50:46.616Z,70.60
2018-04-12T00:53:14.232Z,70.40
2018-04-12T00:55:41.844Z,70.50
2018-04-12T00:58:09.470Z,70.60
2018-04-12T01:00:37.087Z,70.70
2018-04-12T01:03:05.448Z,71.00
2018-04-12T01:05:33.084Z,70.90
2018-04-12T01:08:00.998Z,70.90
2018-04-12T01:10:29.379Z,71.20
2018-04-12T01:12:57.737Z,71.30
2018-04-12T01:15:25.387Z,71.40
2018-04-12T01:17:52.996Z,71.40
2018-04-12T01:20:20.638Z,71.50
2018-04-12T01:22:49.026Z,71.60
2018-04-12T01:25:16.624Z,71.60
2018-04-12T01:27:44.242Z,71.60
2018-04-12T01:30:11.858Z,71.40
2018-04-12T01:32:39.537Z,71.50
2018-04-12T01:35:07.921Z,71.60
2018-04-12T01:37:36.317Z,71.70
2018-04-12T01:40:03.964Z,71.70
2018-04-12T01:42:32.365Z,71.80
2018-04-12T01:44:59.970Z,71.70
2018-04-12T01:47:27.698Z,71.70
2018-04-12T01:49:55.452Z,71.70
2018-04-12T01:52:23.234Z,71.80
2018-04-12T01:54:50.956Z,71.90
2018-04-12T01:57:19.387Z,72.10
2018-04-12T01:59:46.980Z,72.10
2018-04-12T02:02:14.628Z,72.20
2018-04-12T02:04:42.248Z,72.40
2018-04-12T02:07:09.931Z,72.40
2018-04-12T02:09:37.609Z,72.70
2018-04-12T02:12:05.212Z,72.70
2018-04-12T02:14:33.621Z,72.90
2018-04-12T02:17:01.478Z,72.90
2018-04-12T02:19:29.158Z,73.00
2018-04-12T02:21:56.803Z,73.00
2018-04-12T02:24:24.439Z,73.10
2018-04-12T02:26:52.111Z,73.20
2018-04-12T02:29:19.808Z,73.40
2018-04-12T02:31:47.464Z,73.30
2018-04-12T02:34:15.113Z,73.50
2018-04-12T02:36:42.780Z,73.50
2018-04-12T02:39:10.435Z,73.40
2018-04-12T02:41:38.106Z,73.60
2018-04-12T02:44:05.745Z,73.70
2018-04-12T02:46:33.409Z,73.80
2018-04-12T02:49:01.061Z,73.90
2018-04-12T02:51:28.750Z,73.90
2018-04-12T02:53:56.354Z,73.90
2018-04-12T02:56:24.804Z,74.20
2018-04-12T02:58:52.457Z,74.20
2018-04-12T03:01:20.089Z,74.20
2018-04-12T03:06:38.378Z,74.40
2018-04-12T03:09:06.036Z,74.50
2018-04-12T03:11:33.655Z,74.50
2018-04-12T03:14:02.064Z,74.60
2018-04-12T03:16:29.726Z,74.60
2018-04-12T03:18:57.383Z,74.70
2018-04-12T03:21:25.024Z,74.80
2018-04-12T03:23:52.653Z,74.70
2018-04-12T03:26:21.111Z,74.90
2018-04-12T03:28:48.802Z,74.90
2018-04-12T03:31:17.204Z,75.10
2018-04-12T03:33:45.845Z,75.10
2018-04-12T03:36:13.479Z,75.00
2018-04-12T03:38:41.114Z,75.00
2018-04-12T03:41:08.810Z,75.00
2018-04-12T03:43:36.485Z,75.00
2018-04-12T03:46:04.136Z,75.10
2018-04-12T03:48:31.787Z,75.20
2018-04-12T03:50:59.554Z,75.10
2018-04-12T03:53:27.191Z,75.40
2018-04-12T03:55:54.852Z,75.30
2018-04-12T03:58:22.513Z,75.40
2018-04-12T04:00:50.123Z,75.50
2018-04-12T04:03:17.780Z,75.40
2018-04-12T04:05:45.480Z,76.20
2018-04-12T04:08:13.185Z,75.40
2018-04-12T04:10:40.792Z,75.50
2018-04-12T04:13:08.452Z,75.70
2018-04-12T04:15:47.969Z,75.70
2018-04-12T04:18:28.416Z,75.50
2018-04-12T04:23:53.324Z,75.30
2018-04-12T04:26:20.992Z,75.50
2018-04-12T04:28:48.606Z,75.40
2018-04-12T04:31:16.270Z,75.30
2018-04-12T04:33:44.007Z,75.50
2018-04-12T04:36:11.674Z,75.50
2018-04-12T04:38:39.335Z,75.50
2018-04-12T04:41:07.794Z,75.40
2018-04-12T04:43:35.384Z,75.30
2018-04-12T04:46:03.034Z,75.20
2018-04-12T04:48:31.461Z,75.10
2018-04-12T04:50:59.324Z,75.10
2018-04-12T04:53:27.690Z,74.90
2018-04-12T04:55:55.375Z,75.00
2018-04-12T04:58:23.016Z,74.80
2018-04-12T05:00:51.304Z,74.80
2018-04-12T05:03:18.974Z,74.50
2018-04-12T05:05:46.600Z,74.40
2018-04-12T05:08:14.210Z,74.20
2018-04-12T05:10:41.825Z,74.40
2018-04-12T05:13:09.487Z,74.20
2018-04-12T05:15:37.197Z,73.90
2018-04-12T05:18:04.804Z,73.80
2018-04-12T05:20:33.072Z,73.70
2018-04-12T05:23:00.728Z,73.40
2018-04-12T05:25:28.395Z,73.30
2018-04-12T05:27:56.028Z,73.30
2018-04-12T05:30:24.384Z,72.90
2018-04-12T05:32:51.994Z,72.90
2018-04-12T05:35:19.675Z,72.60
2018-04-12T05:37:47.678Z,72.50
2018-04-12T05:40:15.297Z,72.40
2018-04-12T05:42:42.962Z,72.00
2018-04-12T05:45:10.594Z,71.90
2018-04-12T05:47:38.298Z,71.50
2018-04-12T05:50:06.769Z,70.90
2018-04-12T05:52:34.472Z,70.90
2018-04-12T05:55:02.914Z,70.90
2018-04-12T05:57:30.531Z,70.90
2018-04-12T05:59:58.907Z,69.80
2018-04-12T06:02:27.314Z,69.80
2018-04-12T06:04:54.926Z,69.80
2018-04-12T06:07:22.572Z,69.50
2018-04-12T06:09:50.200Z,69.90
2018-04-12T06:12:17.835Z,69.10
2018-04-12T06:14:45.423Z,69.00
2018-04-12T06:17:13.646Z,68.70
2018-04-12T06:19:42.061Z,68.10
2018-04-12T06:22:09.693Z,68.00
2018-04-12T06:24:38.062Z,67.30
2018-04-12T06:27:06.480Z,67.20
2018-04-12T06:29:34.076Z,67.20
2018-04-12T06:32:01.769Z,67.10
2018-04-12T06:34:30.977Z,66.40
2018-04-12T06:36:59.217Z,66.30
2018-04-12T06:39:26.912Z,66.10
2018-04-12T06:41:55.319Z,65.80
2018-04-12T06:44:22.912Z,65.70
2018-04-12T06:46:50.563Z,65.30
2018-04-12T06:49:18.166Z,65.10
2018-04-12T06:51:46.531Z,64.30
2018-04-12T06:54:14.962Z,63.90
2018-04-12T06:56:42.594Z,63.90
2018-04-12T06:59:10.200Z,63.10
2018-04-12T07:01:37.836Z,63.00
2018-04-12T07:04:05.467Z,62.70
2018-04-12T07:06:34.937Z,61.80
2018-04-12T07:09:03.330Z,61.50
2018-04-12T07:11:31.774Z,61.20
2018-04-12T07:13:59.425Z,61.10
2018-04-12T07:16:27.055Z,61.20
2018-04-12T07:18:56.087Z,61.00
2018-04-12T07:21:23.718Z,61.00
2018-04-12T07:23:51.412Z,60.60
2018-04-12T07:26:19.042Z,60.00
2018-04-12T07:28:47.288Z,59.90
2018-04-12T07:31:16.291Z,59.50
2018-04-12T07:33:45.331Z,59.40
2018-04-12T07:36:12.965Z,59.30
2018-04-12T07:38:40.604Z,59.20
2018-04-12T07:41:08.258Z,59.00
2018-04-12T07:43:36.623Z,58.70
2018-04-12T07:46:04.264Z,58.70
2018-04-12T07:48:31.928Z,58.90
2018-04-12T07:50:59.742Z,58.90
2018-04-12T07:53:27.451Z,58.70
2018-04-12T07:55:55.042Z,58.40
2018-04-12T07:58:23.603Z,57.90
2018-04-12T08:00:52.313Z,57.90
2018-04-12T08:03:20.051Z,57.70
2018-04-12T08:05:48.641Z,57.10
2018-04-12T08:08:16.296Z,56.50
2018-04-12T08:10:43.889Z,56.90
2018-04-12T08:13:12.280Z,55.00
2018-04-12T08:15:39.975Z,55.00
2018-04-12T08:18:07.677Z,54.80
2018-04-12T08:20:36.073Z,54.70
2018-04-12T08:23:05.157Z,54.70
2018-04-12T08:25:33.697Z,55.10
2018-04-12T08:28:01.352Z,55.10
2018-04-12T08:30:29.419Z,55.40
2018-04-12T08:32:57.092Z,55.70
2018-04-12T08:35:24.747Z,55.90
2018-04-12T08:37:52.368Z,55.60
2018-04-12T08:40:20.000Z,55.50
2018-04-12T08:42:49.990Z,55.20
2018-04-12T08:45:17.570Z,55.10
2018-04-12T08:47:45.209Z,54.50
2018-04-12T08:50:12.877Z,53.60
2018-04-12T08:52:40.556Z,52.90
2018-04-12T08:55:08.944Z,53.10
2018-04-12T08:57:37.328Z,52.90
2018-04-12T09:00:06.719Z,53.10
2018-04-12T09:02:35.132Z,53.30
2018-04-12T09:05:02.794Z,53.90
2018-04-12T09:07:30.478Z,53.60
2018-04-12T09:09:58.954Z,53.90
2018-04-12T09:12:26.600Z,54.20
2018-04-12T09:14:54.280Z,53.80
2018-04-12T09:17:21.935Z,53.40
2018-04-12T09:19:49.702Z,53.00
2018-04-12T09:22:17.800Z,52.60
2018-04-12T09:24:46.903Z,52.10
2018-04-12T09:27:14.566Z,52.00
2018-04-12T09:29:44.016Z,51.30
2018-04-12T09:32:11.681Z,51.30
2018-04-12T09:34:39.441Z,50.80
2018-04-12T09:37:07.109Z,50.40
2018-04-12T09:39:34.738Z,50.10
2018-04-12T09:42:03.236Z,49.20
2018-04-12T09:44:31.065Z,49.20
2018-04-12T09:46:59.440Z,49.40
2018-04-12T09:49:27.080Z,49.40
2018-04-12T09:51:54.700Z,49.80
2018-04-12T09:54:22.316Z,49.50
2018-04-12T09:56:49.917Z,49.50
2018-04-12T09:59:17.602Z,49.10
2018-04-12T10:01:50.999Z,49.00
2018-04-12T10:04:19.229Z,48.40
2018-04-12T10:06:52.624Z,47.90
2018-04-12T10:09:21.189Z,48.10
2018-04-12T10:11:48.867Z,48.00
2018-04-12T10:14:17.321Z,48.00
2018-04-12T10:16:45.039Z,47.90
2018-04-12T10:19:12.744Z,47.70
2018-04-12T10:21:40.471Z,47.20
2018-04-12T10:24:08.923Z,46.60
2018-04-12T10:26:36.661Z,47.10
2018-04-12T10:29:04.270Z,46.80
2018-04-12T10:31:31.938Z,47.20
2018-04-12T10:33:59.679Z,47.10
2018-04-12T10:36:27.368Z,46.80
2018-04-12T10:38:55.976Z,46.80
2018-04-12T10:41:23.572Z,46.80
2018-04-12T10:43:51.980Z,46.80
2018-04-12T10:46:19.651Z,46.70
2018-04-12T10:48:47.320Z,47.00
2018-04-12T10:51:15.006Z,46.70
2018-04-12T10:53:43.944Z,46.80
2018-04-12T10:56:12.394Z,46.80
2018-04-12T10:58:40.819Z,47.80
2018-04-12T11:01:08.403Z,48.30
2018-04-12T11:03:36.017Z,47.80
2018-04-12T11:06:03.728Z,47.40
2018-04-12T11:08:32.128Z,46.40
2018-04-12T11:11:00.535Z,45.80
2018-04-12T11:13:28.135Z,45.70
2018-04-12T11:15:56.638Z,45.00
2018-04-12T11:18:25.084Z,44.10
2018-04-12T11:20:53.437Z,44.40
2018-04-12T11:23:21.200Z,44.40
2018-04-12T11:25:48.837Z,44.60
2018-04-12T11:28:17.273Z,43.90
2018-04-12T11:30:44.916Z,43.90
2018-04-12T11:33:12.721Z,44.20
2018-04-12T11:35:40.467Z,43.60
2018-04-12T11:38:08.121Z,42.30
2018-04-12T11:40:35.731Z,41.10
2018-04-12T11:43:03.377Z,41.20
2018-04-12T11:45:31.742Z,41.30
2018-04-12T11:48:00.210Z,41.10
2018-04-12T11:50:27.847Z,41.10
2018-04-12T11:52:55.653Z,40.60
2018-04-12T11:55:24.052Z,40.50
2018-04-12T11:57:52.396Z,40.50
2018-04-12T12:00:20.042Z,40.50
2018-04-12T12:02:47.652Z,40.40
2018-04-12T12:05:16.250Z,40.10
2018-04-12T12:07:43.933Z,40.10
2018-04-12T12:10:11.570Z,39.70
2018-04-12T12:12:39.223Z,39.80
2018-04-12T12:15:07.024Z,39.60
2018-04-12T12:17:34.707Z,39.50
2018-04-12T12:20:03.096Z,39.00
2018-04-12T12:22:30.742Z,39.00
2018-04-12T12:24:59.140Z,38.00
2018-04-12T12:27:26.861Z,38.10
2018-04-12T12:29:54.625Z,37.70
2018-04-12T12:32:22.283Z,36.50
2018-04-12T12:34:49.883Z,35.50
2018-04-12T12:37:17.520Z,34.70
2018-04-12T12:39:45.185Z,33.50
2018-04-12T12:42:14.522Z,32.70
2018-04-12T12:44:42.922Z,31.80
2018-04-12T12:47:10.627Z,31.80
2018-04-12T12:49:38.226Z,31.90
2018-04-12T12:52:07.461Z,31.60
2018-04-12T12:54:35.106Z,31.50
2018-04-12T12:57:02.717Z,31.10
2018-04-12T12:59:30.432Z,30.80
2018-04-12T13:01:58.070Z,30.30
2018-04-12T13:04:26.501Z,31.00
2018-04-12T13:06:54.589Z,30.80
2018-04-12T13:09:22.252Z,30.90
2018-04-12T13:11:50.083Z,31.50
2018-04-12T13:14:17.857Z,30.70
2018-04-12T13:16:46.819Z,30.50
2018-04-12T13:19:14.726Z,30.00
2018-04-12T13:21:42.485Z,30.00
2018-04-12T13:24:10.080Z,29.90
2018-04-12T13:26:38.452Z,29.90
2018-04-12T13:29:06.146Z,29.80
2018-04-12T13:31:33.856Z,30.30
2018-04-12T13:34:01.647Z,31.00
2018-04-12T13:36:30.016Z,31.40
2018-04-12T13:38:57.645Z,31.30
2018-04-12T13:41:25.345Z,30.00
2018-04-12T13:43:53.896Z,27.70
2018-04-12T13:46:21.494Z,27.60
2018-04-12T13:48:49.918Z,26.20
2018-04-12T13:51:17.658Z,26.20
2018-04-12T13:53:45.296Z,26.00
2018-04-12T13:56:14.150Z,24.70
2018-04-12T13:58:42.384Z,24.70
2018-04-12T14:01:09.993Z,24.50
2018-04-12T14:03:37.721Z,24.60
2018-04-12T14:06:05.372Z,26.00
2018-04-12T14:08:33.049Z,26.00
2018-04-12T14:11:00.713Z,26.20
2018-04-12T14:13:28.432Z,26.00
2018-04-12T14:15:56.131Z,26.00
2018-04-12T14:18:23.768Z,25.30
2018-04-12T14:20:51.387Z,24.50
2018-04-12T14:23:19.800Z,25.30
2018-04-12T14:25:47.488Z,25.30
2018-04-12T14:28:15.150Z,26.10
2018-04-12T14:30:42.779Z,26.80
2018-04-12T14:33:11.174Z,28.60
2018-04-12T14:35:38.837Z,28.60
2018-04-12T14:38:06.489Z,28.70
2018-04-12T14:40:34.157Z,28.70
2018-04-12T14:43:01.849Z,29.00
2018-04-12T14:45:30.302Z,28.90
2018-04-12T14:47:58.127Z,28.90
2018-04-12T14:50:25.784Z,29.40
2018-04-12T14:52:53.463Z,29.90
2018-04-12T14:55:21.568Z,30.00
2018-04-12T14:57:49.163Z,29.60
2018-04-12T15:00:16.784Z,29.70
2018-04-12T15:02:44.373Z,29.90
2018-04-12T15:05:11.961Z,30.00
2018-04-12T15:07:41.025Z,30.10
2018-04-12T15:10:08.686Z,30.10
2018-04-12T15:12:36.350Z,30.90
2018-04-12T15:15:04.024Z,31.20
2018-04-12T15:17:32.466Z,30.60
2018-04-12T15:20:00.120Z,30.60
2018-04-12T15:22:27.789Z,30.70
2018-04-12T15:24:55.418Z,31.60
2018-04-12T15:27:23.078Z,32.30
2018-04-12T15:29:50.804Z,33.20
2018-04-12T15:32:18.388Z,33.40
2018-04-12T15:34:46.821Z,33.40
2018-04-12T15:37:14.607Z,33.30
2018-04-12T15:39:42.243Z,33.50
2018-04-12T15:42:09.907Z,33.80
2018-04-12T15:44:38.307Z,34.50
2018-04-12T15:47:05.924Z,34.50
2018-04-12T15:49:33.621Z,34.90
2018-04-12T15:52:01.330Z,35.40
2018-04-12T15:54:29.074Z,36.30
2018-04-12T15:56:57.446Z,37.10
2018-04-12T15:59:25.032Z,37.10
2018-04-12T16:01:53.444Z,37.90
2018-04-12T16:04:21.052Z,37.90
2018-04-12T16:06:49.528Z,38.70
2018-04-12T16:09:17.193Z,38.70
2018-04-12T16:11:45.627Z,39.30
2018-04-12T16:14:13.255Z,39.20
2018-04-12T16:16:40.949Z,39.50
2018-04-12T16:19:08.594Z,39.80
2018-04-12T16:21:36.215Z,40.10
2018-04-12T16:24:04.681Z,40.60
2018-04-12T16:26:32.302Z,40.50
2018-04-12T16:28:59.952Z,40.80
2018-04-12T16:31:27.609Z,41.00
2018-04-12T16:33:55.248Z,41.40
2018-04-12T16:36:23.636Z,41.90
2018-04-12T16:38:51.236Z,41.90
2018-04-12T16:41:18.866Z,42.30
2018-04-12T16:43:46.504Z,42.80
2018-04-12T16:46:14.962Z,43.30
2018-04-12T16:48:42.590Z,43.20
2018-04-12T16:51:10.220Z,43.40
2018-04-12T16:53:38.175Z,43.60
2018-04-12T16:56:06.553Z,43.90
2018-04-12T16:58:34.952Z,43.90
2018-04-12T17:01:02.584Z,43.90
2018-04-12T17:03:31.652Z,44.30
2018-04-12T17:05:59.294Z,44.20
2018-04-12T17:08:26.915Z,44.50
2018-04-12T17:10:54.547Z,44.60
2018-04-12T17:13:22.143Z,44.70
2018-04-12T17:15:50.381Z,44.90
2018-04-12T17:18:17.999Z,45.10
2018-04-12T17:20:45.646Z,45.20
2018-04-12T17:23:13.593Z,45.60
2018-04-12T17:25:42.009Z,46.60
2018-04-12T17:28:09.686Z,46.00
2018-04-12T17:30:37.817Z,46.40
2018-04-12T17:33:05.444Z,46.70
2018-04-12T17:35:33.097Z,46.90
2018-04-12T17:38:00.746Z,47.30
2018-04-12T17:40:28.492Z,47.40
2018-04-12T17:42:56.136Z,47.50
2018-04-12T17:45:23.824Z,47.70
2018-04-12T17:47:51.431Z,47.80
2018-04-12T17:50:19.836Z,48.30
2018-04-12T17:52:47.428Z,48.20
2018-04-12T17:55:15.095Z,48.40
2018-04-12T17:57:42.746Z,48.60
2018-04-12T18:00:10.421Z,48.80
2018-04-12T18:02:38.734Z,49.10
2018-04-12T18:05:07.168Z,49.40
2018-04-12T18:07:34.838Z,49.30
2018-04-12T18:10:03.331Z,49.80
2018-04-12T18:12:31.849Z,50.00
2018-04-12T18:14:59.460Z,50.00
2018-04-12T18:17:27.705Z,50.20
2018-04-12T18:19:55.444Z,50.40
2018-04-12T18:22:23.174Z,50.70
2018-04-12T18:24:51.545Z,51.30
2018-04-12T18:27:19.180Z,51.30
2018-04-12T18:29:46.775Z,51.30
2018-04-12T18:32:15.222Z,51.70
2018-04-12T18:34:42.981Z,51.60
2018-04-12T18:37:10.618Z,51.70
2018-04-12T18:39:40.191Z,51.80
2018-04-12T18:42:08.611Z,52.10
2018-04-12T18:44:36.397Z,52.10
2018-04-12T18:47:04.000Z,52.10
2018-04-12T18:49:31.639Z,52.20
2018-04-12T18:52:00.338Z,52.40
2018-04-12T18:54:28.786Z,52.40
2018-04-12T18:56:56.431Z,52.40
2018-04-12T18:59:24.062Z,53.10
2018-04-12T19:01:51.808Z,52.60
2018-04-12T19:04:20.174Z,52.80
2018-04-12T19:06:48.736Z,53.20
2018-04-12T19:09:16.705Z,53.20
2018-04-12T19:11:44.373Z,53.30
2018-04-12T19:14:13.598Z,53.50
2018-04-12T19:16:41.945Z,53.50
2018-04-12T19:19:09.540Z,53.80
2018-04-12T19:21:37.247Z,53.90
2018-04-12T19:24:05.017Z,54.10
2018-04-12T19:26:32.674Z,54.30
2018-04-12T19:29:00.435Z,54.60
2018-04-12T19:31:28.705Z,54.80
2018-04-12T19:33:56.348Z,55.10
2018-04-12T19:36:24.016Z,55.40
2018-04-12T19:39:15.746Z,55.50
2018-04-12T19:41:43.481Z,55.70
2018-04-12T19:44:11.210Z,55.90
2018-04-12T19:46:38.887Z,55.90
2018-04-12T19:49:07.284Z,56.10
2018-04-12T19:51:34.950Z,56.10
2018-04-12T19:54:02.636Z,56.10
2018-04-12T19:56:30.253Z,56.20
2018-04-12T19:58:58.659Z,56.50
2018-04-12T20:01:26.316Z,56.50
2018-04-12T20:03:54.192Z,56.70
2018-04-12T20:06:21.875Z,56.80
2018-04-12T20:08:49.829Z,56.90
2018-04-12T20:11:17.498Z,57.20
2018-04-12T20:13:45.222Z,57.30
2018-04-12T20:16:12.851Z,57.40
2018-04-12T20:18:40.472Z,57.80
2018-04-12T20:21:08.147Z,57.90
2018-04-12T20:23:35.735Z,58.10
2018-04-12T20:26:03.567Z,58.30
2018-04-12T20:28:31.236Z,58.60
2018-04-12T20:30:59.484Z,58.70
2018-04-12T20:33:27.132Z,58.80
2018-04-12T20:35:54.790Z,58.90
2018-04-12T20:38:22.458Z,59.10
2018-04-12T20:40:50.161Z,59.30
2018-04-12T20:43:17.805Z,59.30
2018-04-12T20:45:45.981Z,59.40
2018-04-12T20:48:13.741Z,59.50
2018-04-12T20:50:41.984Z,59.60
2018-04-12T20:53:09.584Z,59.80
2018-04-12T20:55:37.262Z,59.90
2018-04-12T20:58:04.896Z,60.20
2018-04-12T21:00:32.563Z,60.30
2018-04-12T21:03:00.223Z,60.30
2018-04-12T21:05:27.966Z,60.40
2018-04-12T21:07:55.847Z,60.50
2018-04-12T21:10:23.802Z,60.70
2018-04-12T21:12:51.438Z,60.90
2018-04-12T21:15:19.833Z,61.10
2018-04-12T21:17:47.474Z,61.00
2018-04-12T21:20:15.875Z,61.40
2018-04-12T21:22:43.558Z,61.40
2018-04-12T21:25:12.161Z,61.40
2018-04-12T21:27:40.328Z,61.50
2018-04-12T21:30:07.993Z,61.60
2018-04-12T21:32:35.605Z,61.80
2018-04-12T21:35:03.497Z,62.00
2018-04-12T21:37:31.086Z,62.00
2018-04-12T21:39:58.770Z,62.20
2018-04-12T21:42:27.210Z,62.50
2018-04-12T21:44:56.668Z,62.40
2018-04-12T21:47:24.388Z,62.60
2018-04-12T21:49:52.125Z,62.80
2018-04-12T21:52:19.827Z,62.70
2018-04-12T21:54:48.299Z,63.10
2018-04-12T21:57:17.776Z,63.10
2018-04-12T21:59:45.521Z,63.20
2018-04-12T22:02:13.260Z,63.20
2018-04-12T22:04:41.756Z,63.50
2018-04-12T22:07:10.103Z,63.50
2018-04-12T22:09:39.615Z,63.50
2018-04-12T22:12:07.556Z,63.70
2018-04-12T22:14:35.284Z,63.60
2018-04-12T22:17:02.908Z,63.80
2018-04-12T22:19:30.651Z,63.90
2018-04-12T22:21:58.996Z,64.00
2018-04-12T22:24:26.583Z,64.80
2018-04-12T22:26:54.283Z,64.10
2018-04-12T22:29:21.913Z,64.20
2018-04-12T22:31:50.481Z,64.40
2018-04-12T22:34:18.916Z,64.40
2018-04-12T22:36:47.372Z,64.50
2018-04-12T22:39:15.851Z,64.60
2018-04-12T22:41:45.117Z,64.70
2018-04-12T22:44:12.840Z,64.70
2018-04-12T22:46:40.585Z,64.70
2018-04-12T22:49:08.302Z,64.70
2018-04-12T22:51:36.253Z,64.70
2018-04-12T23:14:42.581Z,64.40
2018-04-12T23:17:10.979Z,64.60
2018-04-12T23:19:38.590Z,64.40
2018-04-12T23:22:06.260Z,64.60
2018-04-12T23:24:33.912Z,64.70
2018-04-12T23:27:01.586Z,64.70
2018-04-12T23:29:30.642Z,64.70
2018-04-12T23:31:58.243Z,64.70
2018-04-12T23:34:25.855Z,64.70
2018-04-12T23:36:54.101Z,64.80
2018-04-12T23:39:22.504Z,64.90
2018-04-12T23:44:24.151Z,65.00
2018-04-12T23:46:52.557Z,64.90
2018-04-12T23:49:21.113Z,64.90
2018-04-12T23:51:49.530Z,64.90
2018-04-12T23:54:17.153Z,64.90
2018-04-12T23:56:45.546Z,64.90
2018-04-12T23:59:13.160Z,64.90
